Terminal Aerodrome Forecast
Issued by NWS Twin Cities, MN

Home | Current Version | Previous Version | Text Only | Print | Product List | Glossary Off
Versions: 1 2 3 4 5 6 7 8 9 10 11 12 13 14 15 16 17 18 19 20 21 22 23 24 25 26 27

419
FTUS43 KMPX 180231 AAA
TAFMSP
TAF AMD
KMSP 180231Z 1803/1906 VRB03KT P6SM FEW200
     FM180900 VRB03KT P6SM BKN110
     FM181600 13007KT P6SM VCSH OVC045
     FM182100 12009KT P6SM BKN030 OVC050=

USA.gov is the U.S. government's official web portal to all federal, state and local government web resources and services.